createdAt,value
2018-12-05T00:02:28.622Z,91.00
2018-12-05T00:04:56.647Z,89.20
2018-12-05T00:07:25.063Z,87.90
2018-12-05T00:09:52.765Z,89.00
2018-12-05T00:12:20.480Z,90.40
2018-12-05T00:14:48.903Z,90.60
2018-12-05T00:17:16.774Z,90.50
2018-12-05T00:19:44.469Z,89.00
2018-12-05T00:22:12.843Z,90.00
2018-12-05T00:24:41.223Z,89.70
2018-12-05T00:27:09.186Z,90.50
2018-12-05T00:29:37.426Z,90.10
2018-12-05T00:32:06.431Z,90.30
2018-12-05T00:34:34.082Z,90.30
2018-12-05T00:37:01.680Z,90.60
2018-12-05T00:39:34.804Z,90.40
2018-12-05T00:42:03.515Z,90.90
2018-12-05T00:44:31.285Z,89.80
2018-12-05T00:46:59.762Z,89.60
2018-12-05T00:49:27.587Z,90.00
2018-12-05T00:51:55.902Z,91.10
2018-12-05T00:54:27.978Z,91.80
2018-12-05T00:56:55.866Z,91.50
2018-12-05T00:59:23.624Z,91.50
2018-12-05T01:01:51.316Z,91.20
2018-12-05T01:04:19.053Z,90.90
2018-12-05T01:06:46.835Z,91.40
2018-12-05T01:09:14.465Z,91.30
2018-12-05T01:11:42.335Z,90.70
2018-12-05T01:14:10.402Z,88.10
2018-12-05T01:16:38.067Z,88.20
2018-12-05T01:19:06.770Z,90.40
2018-12-05T01:21:34.571Z,91.30
2018-12-05T01:24:07.303Z,91.40
2018-12-05T01:26:34.982Z,90.80
2018-12-05T01:29:02.701Z,90.20
2018-12-05T01:31:31.633Z,88.40
2018-12-05T01:34:00.447Z,89.20
2018-12-05T01:36:29.487Z,90.20
2018-12-05T01:38:57.142Z,90.50
2018-12-05T01:41:24.927Z,91.10
2018-12-05T01:43:52.826Z,90.70
2018-12-05T01:46:20.569Z,90.20
2018-12-05T01:48:48.276Z,90.80
2018-12-05T01:51:17.316Z,91.00
2018-12-05T01:53:45.459Z,91.50
2018-12-05T01:56:13.715Z,91.60
2018-12-05T01:58:42.177Z,92.00
2018-12-05T02:01:09.742Z,91.90
2018-12-05T02:03:42.383Z,92.70
2018-12-05T02:06:10.960Z,93.20
2018-12-05T02:08:38.787Z,93.50
2018-12-05T02:11:06.555Z,94.50
2018-12-05T02:13:34.260Z,94.70
2018-12-05T02:16:02.508Z,94.00
2018-12-05T02:18:31.043Z,94.30
2018-12-05T02:21:00.075Z,93.90
2018-12-05T02:23:27.954Z,93.60
2018-12-05T02:25:56.328Z,93.90
2018-12-05T02:28:24.331Z,92.70
2018-12-05T02:30:52.735Z,89.70
2018-12-05T02:33:21.548Z,79.80
2018-12-05T02:35:49.231Z,73.40
2018-12-05T02:38:19.168Z,72.70
2018-12-05T02:40:46.787Z,70.70
2018-12-05T02:43:14.439Z,70.80
2018-12-05T02:45:42.059Z,69.00
2018-12-05T02:48:10.710Z,68.20
2018-12-05T02:50:38.320Z,67.60
2018-12-05T02:53:05.967Z,68.10
2018-12-05T02:55:33.597Z,68.60
2018-12-05T02:58:01.241Z,69.20
2018-12-05T03:00:29.026Z,68.60
2018-12-05T03:02:56.700Z,68.30
2018-12-05T03:05:24.446Z,67.10
2018-12-05T03:07:52.231Z,67.10
2018-12-05T03:10:19.986Z,68.10
2018-12-05T03:12:48.278Z,68.30
2018-12-05T03:15:17.293Z,68.50
2018-12-05T03:17:45.618Z,68.20
2018-12-05T03:20:13.456Z,67.90
2018-12-05T03:22:41.070Z,67.60
2018-12-05T03:25:08.790Z,68.20
2018-12-05T03:27:36.399Z,68.60
2018-12-05T03:30:04.490Z,68.70
2018-12-05T03:32:32.107Z,68.90
2018-12-05T03:34:59.882Z,71.60
2018-12-05T03:37:27.554Z,72.20
2018-12-05T03:39:55.215Z,73.20
2018-12-05T03:42:22.970Z,76.30
2018-12-05T03:44:50.821Z,77.80
2018-12-05T03:47:18.562Z,79.10
2018-12-05T03:49:51.442Z,81.00
2018-12-05T03:52:19.049Z,81.70
2018-12-05T03:54:46.712Z,82.70
2018-12-05T03:57:14.550Z,82.90
2018-12-05T03:59:42.166Z,83.00
2018-12-05T04:02:09.803Z,84.70
2018-12-05T04:04:37.703Z,85.70
2018-12-05T04:07:05.961Z,86.10
2018-12-05T04:09:34.215Z,86.50
2018-12-05T04:12:02.402Z,89.10
2018-12-05T04:14:30.058Z,89.10
2018-12-05T04:16:58.316Z,89.30
2018-12-05T04:19:26.105Z,90.60
2018-12-05T04:21:54.101Z,90.90
2018-12-05T04:24:21.939Z,90.80
2018-12-05T04:26:49.878Z,90.20
2018-12-05T04:29:17.666Z,90.40
2018-12-05T04:31:45.326Z,90.20
2018-12-05T04:34:12.943Z,90.10
2018-12-05T04:36:40.628Z,90.50
2018-12-05T04:39:08.989Z,90.10
2018-12-05T04:41:36.687Z,90.10
2018-12-05T04:44:04.625Z,85.00
2018-12-05T04:46:32.599Z,77.30
2018-12-05T04:49:00.180Z,71.40
2018-12-05T04:51:28.658Z,68.30
2018-12-05T04:53:56.304Z,67.00
2018-12-05T04:56:24.150Z,65.20
2018-12-05T04:58:51.930Z,66.20
2018-12-05T05:01:20.294Z,64.80
2018-12-05T05:03:47.920Z,64.40
2018-12-05T05:06:15.740Z,64.20
2018-12-05T05:08:43.373Z,64.20
2018-12-05T05:11:11.624Z,63.70
2018-12-05T05:13:39.341Z,63.70
2018-12-05T05:16:07.357Z,63.30
2018-12-05T05:18:36.329Z,63.60
2018-12-05T05:21:04.030Z,63.00
2018-12-05T05:23:31.661Z,63.70
2018-12-05T05:26:00.621Z,62.80
2018-12-05T05:28:28.434Z,63.80
2018-12-05T05:30:56.304Z,63.50
2018-12-05T05:33:24.900Z,63.90
2018-12-05T05:35:52.761Z,64.00
2018-12-05T05:38:20.502Z,64.70
2018-12-05T05:40:48.365Z,65.60
2018-12-05T05:43:16.210Z,65.40
2018-12-05T05:45:43.968Z,65.70
2018-12-05T05:48:11.761Z,66.30
2018-12-05T05:50:40.246Z,68.10
2018-12-05T05:53:08.719Z,69.30
2018-12-05T05:55:36.390Z,72.70
2018-12-05T05:58:05.378Z,76.50
2018-12-05T06:00:33.106Z,76.20
2018-12-05T06:03:00.840Z,77.60
2018-12-05T06:05:28.898Z,77.80
2018-12-05T06:07:56.701Z,78.90
2018-12-05T06:10:25.125Z,78.60
2018-12-05T06:12:52.940Z,78.60
2018-12-05T06:15:20.678Z,78.80
2018-12-05T06:17:48.370Z,80.00
2018-12-05T06:20:16.754Z,82.50
2018-12-05T06:22:44.466Z,80.00
2018-12-05T06:25:12.122Z,79.20
2018-12-05T06:27:40.214Z,78.50
2018-12-05T06:30:08.165Z,79.90
2018-12-05T06:32:35.992Z,80.00
2018-12-05T06:35:03.974Z,81.30
2018-12-05T06:37:32.054Z,81.00
2018-12-05T06:40:00.375Z,81.80
2018-12-05T06:42:28.122Z,82.50
2018-12-05T06:44:55.852Z,83.40
2018-12-05T06:47:23.584Z,84.20
2018-12-05T06:52:25.744Z,85.30
2018-12-05T06:54:53.404Z,83.50
2018-12-05T06:57:21.121Z,83.90
2018-12-05T06:59:49.403Z,84.30
2018-12-05T07:02:17.106Z,83.50
2018-12-05T07:04:44.827Z,85.70
2018-12-05T07:07:12.563Z,86.20
2018-12-05T07:09:41.473Z,84.60
2018-12-05T07:12:09.171Z,82.90
2018-12-05T07:14:38.114Z,83.60
2018-12-05T07:17:05.446Z,83.80
2018-12-05T07:19:33.913Z,84.90
2018-12-05T07:22:01.755Z,86.20
2018-12-05T07:24:30.278Z,85.30
2018-12-05T07:26:58.297Z,85.40
2018-12-05T07:29:26.543Z,83.10
2018-12-05T07:31:54.740Z,81.30
2018-12-05T07:34:24.183Z,81.90
2018-12-05T07:36:53.211Z,84.00
2018-12-05T07:39:21.038Z,83.90
2018-12-05T07:41:49.537Z,83.70
2018-12-05T07:44:18.377Z,82.50
2018-12-05T07:46:45.973Z,82.20
2018-12-05T07:49:13.690Z,79.30
2018-12-05T07:51:41.465Z,80.60
2018-12-05T07:54:09.133Z,79.90
2018-12-05T07:56:37.508Z,79.00
2018-12-05T07:59:05.742Z,79.40
2018-12-05T08:01:33.520Z,81.60
2018-12-05T08:04:02.007Z,82.90
2018-12-05T08:06:29.677Z,82.20
2018-12-05T08:08:57.527Z,80.00
2018-12-05T08:11:25.232Z,80.80
2018-12-05T08:13:53.057Z,80.30
2018-12-05T08:16:20.694Z,80.80
2018-12-05T08:18:48.542Z,80.80
2018-12-05T08:21:16.351Z,80.80
2018-12-05T08:23:44.806Z,80.40
2018-12-05T08:26:13.276Z,80.10
2018-12-05T08:28:40.989Z,79.60
2018-12-05T08:31:08.853Z,76.40
2018-12-05T08:33:36.557Z,75.20
2018-12-05T08:36:04.688Z,75.30
2018-12-05T08:38:33.176Z,72.70
2018-12-05T08:41:00.898Z,73.00
2018-12-05T08:43:28.519Z,72.00
2018-12-05T08:45:56.162Z,73.00
2018-12-05T08:48:23.900Z,72.80
2018-12-05T08:50:51.743Z,72.70
2018-12-05T08:53:19.559Z,71.90
2018-12-05T08:55:47.387Z,71.70
2018-12-05T08:58:15.253Z,72.30
2018-12-05T09:00:43.473Z,72.30
2018-12-05T09:03:11.184Z,71.30
2018-12-05T09:05:39.513Z,70.90
2018-12-05T09:08:07.302Z,70.50
2018-12-05T09:10:35.005Z,70.20
2018-12-05T09:13:02.730Z,69.70
2018-12-05T09:15:30.819Z,69.30
2018-12-05T09:17:58.551Z,68.50
2018-12-05T09:20:26.356Z,65.20
2018-12-05T09:22:54.013Z,65.80
2018-12-05T09:25:21.640Z,65.70
2018-12-05T09:27:49.570Z,65.10
2018-12-05T09:30:17.442Z,65.00
2018-12-05T09:32:45.154Z,65.90
2018-12-05T09:35:13.049Z,68.90
2018-12-05T09:37:40.816Z,66.90
2018-12-05T09:40:08.922Z,66.30
2018-12-05T09:42:36.711Z,65.70
2018-12-05T09:45:07.135Z,65.30
2018-12-05T09:47:34.828Z,65.30
2018-12-05T09:50:02.899Z,65.70
2018-12-05T09:52:30.690Z,65.80
2018-12-05T09:54:58.307Z,66.20
2018-12-05T09:57:26.018Z,65.90
2018-12-05T09:59:53.825Z,65.60
2018-12-05T10:02:22.134Z,64.00
2018-12-05T10:04:50.247Z,63.30
2018-12-05T10:07:18.015Z,63.40
2018-12-05T10:09:46.088Z,63.30
2018-12-05T10:12:14.030Z,63.00
2018-12-05T10:14:41.759Z,61.20
2018-12-05T10:17:09.517Z,60.30
2018-12-05T10:19:37.418Z,61.30
2018-12-05T10:22:05.849Z,61.80
2018-12-05T10:24:34.093Z,61.10
2018-12-05T10:27:01.961Z,60.90
2018-12-05T10:29:29.657Z,61.30
2018-12-05T10:32:05.118Z,60.90
2018-12-05T10:34:33.115Z,61.30
2018-12-05T10:37:00.972Z,61.20
2018-12-05T10:39:28.855Z,61.40
2018-12-05T10:41:57.201Z,61.60
2018-12-05T10:44:25.111Z,61.80
2018-12-05T10:46:52.943Z,60.60
2018-12-05T10:49:20.946Z,60.80
2018-12-05T10:51:48.742Z,61.10
2018-12-05T10:54:17.107Z,60.30
2018-12-05T10:56:45.982Z,59.50
2018-12-05T10:59:13.972Z,57.60
2018-12-05T11:01:47.345Z,57.60
2018-12-05T11:04:20.537Z,57.10
2018-12-05T11:07:51.867Z,55.00
2018-12-05T11:10:25.330Z,54.10
2018-12-05T11:12:58.648Z,51.90
2018-12-05T11:15:32.303Z,51.60
2018-12-05T11:18:05.845Z,50.90
2018-12-05T11:20:39.375Z,51.50
2018-12-05T11:23:14.575Z,51.20
2018-12-05T11:25:43.577Z,51.30
2018-12-05T11:28:11.396Z,51.40
2018-12-05T11:30:39.560Z,50.20
2018-12-05T11:33:07.458Z,49.80
2018-12-05T11:35:36.252Z,49.20
2018-12-05T11:38:05.018Z,48.70
2018-12-05T11:40:32.700Z,47.80
2018-12-05T11:43:00.515Z,48.00
2018-12-05T11:45:28.671Z,48.60
2018-12-05T11:47:56.403Z,50.20
2018-12-05T11:50:24.262Z,49.60
2018-12-05T11:52:52.763Z,55.30
2018-12-05T11:55:20.782Z,57.10
2018-12-05T11:57:48.826Z,59.40
2018-12-05T12:00:16.669Z,61.20
2018-12-05T12:02:44.450Z,60.70
2018-12-05T12:05:13.365Z,59.60
2018-12-05T12:07:41.801Z,57.50
2018-12-05T12:10:09.911Z,55.60
2018-12-05T12:12:44.036Z,52.60
2018-12-05T12:15:13.994Z,49.80
2018-12-05T12:17:43.241Z,48.90
2018-12-05T12:20:11.363Z,47.50
2018-12-05T12:22:39.167Z,48.00
2018-12-05T12:25:07.198Z,46.80
2018-12-05T12:27:36.273Z,48.50
2018-12-05T12:30:05.861Z,47.60
2018-12-05T12:32:34.045Z,45.30
2018-12-05T12:35:01.905Z,44.60
2018-12-05T12:37:29.731Z,43.90
2018-12-05T12:39:57.521Z,41.50
2018-12-05T12:42:26.360Z,42.60
2018-12-05T12:44:54.086Z,44.00
2018-12-05T12:47:22.689Z,45.20
2018-12-05T12:49:50.474Z,43.80
2018-12-05T12:52:18.509Z,46.60
2018-12-05T12:54:46.353Z,44.00
2018-12-05T12:57:14.304Z,42.80
2018-12-05T12:59:42.703Z,42.50
2018-12-05T13:02:10.634Z,42.10
2018-12-05T13:04:38.392Z,42.00
2018-12-05T13:07:06.309Z,41.70
2018-12-05T13:09:34.021Z,41.50
2018-12-05T13:12:01.785Z,41.60
2018-12-05T13:14:29.546Z,42.00
2018-12-05T13:16:57.999Z,41.90
2018-12-05T13:19:26.437Z,43.60
2018-12-05T13:21:54.324Z,41.30
2018-12-05T13:24:23.473Z,41.50
2018-12-05T13:26:51.833Z,42.00
2018-12-05T13:29:19.890Z,44.00
2018-12-05T13:31:47.707Z,41.90
2018-12-05T13:34:15.578Z,42.10
2018-12-05T13:36:43.423Z,41.90
2018-12-05T13:39:11.885Z,42.20
2018-12-05T13:41:39.788Z,42.60
2018-12-05T13:44:07.622Z,44.80
2018-12-05T13:46:35.820Z,41.60
2018-12-05T13:49:10.294Z,41.20
2018-12-05T13:51:38.342Z,41.50
2018-12-05T13:54:06.119Z,43.00
2018-12-05T13:56:34.226Z,44.10
2018-12-05T13:59:02.346Z,44.00
2018-12-05T14:01:30.980Z,43.80
2018-12-05T14:03:58.762Z,44.70
2018-12-05T14:06:26.546Z,46.60
2018-12-05T14:08:55.351Z,46.60
2018-12-05T14:11:23.616Z,48.30
2018-12-05T14:13:51.346Z,50.70
2018-12-05T14:16:19.744Z,51.60
2018-12-05T14:18:47.424Z,51.50
2018-12-05T14:21:15.630Z,53.80
2018-12-05T14:23:43.650Z,54.30
2018-12-05T14:26:11.697Z,55.60
2018-12-05T14:28:40.098Z,56.80
2018-12-05T14:31:07.868Z,57.80
2018-12-05T14:33:35.869Z,60.10
2018-12-05T14:36:04.330Z,59.60
2018-12-05T14:38:32.245Z,60.30
2018-12-05T14:40:59.951Z,60.40
2018-12-05T14:43:27.852Z,61.30
2018-12-05T14:45:55.556Z,61.30
2018-12-05T14:48:23.443Z,61.30
2018-12-05T14:50:51.128Z,61.30
2018-12-05T14:53:18.789Z,61.50
2018-12-05T14:55:46.708Z,61.90
2018-12-05T14:58:14.458Z,61.90
2018-12-05T15:00:42.171Z,61.90
2018-12-05T15:03:10.088Z,61.90
2018-12-05T15:05:38.612Z,62.00
2018-12-05T15:08:06.537Z,62.10
2018-12-05T15:10:34.260Z,62.20
2018-12-05T15:13:02.043Z,62.10
2018-12-05T15:15:30.121Z,62.40
2018-12-05T15:17:57.912Z,62.20
2018-12-05T15:20:25.825Z,62.60
2018-12-05T15:22:54.297Z,62.70
2018-12-05T15:25:22.007Z,63.40
2018-12-05T15:27:50.549Z,63.10
2018-12-05T15:30:18.486Z,63.40
2018-12-05T15:32:46.325Z,63.30
2018-12-05T15:35:14.292Z,62.40
2018-12-05T15:37:42.027Z,63.00
2018-12-05T15:40:09.941Z,62.70
2018-12-05T15:42:37.771Z,62.70
2018-12-05T15:45:06.620Z,62.50
2018-12-05T15:47:41.485Z,62.40
2018-12-05T15:50:09.418Z,62.30
2018-12-05T15:52:37.142Z,62.70
2018-12-05T15:55:05.289Z,62.90
2018-12-05T15:57:33.193Z,63.00
2018-12-05T16:00:01.121Z,62.60
2018-12-05T16:02:28.888Z,62.60
2018-12-05T16:04:56.436Z,62.30
2018-12-05T16:07:24.599Z,62.50
2018-12-05T16:09:52.498Z,62.60
2018-12-05T16:12:20.166Z,62.30
2018-12-05T16:14:47.966Z,62.30
2018-12-05T16:17:15.876Z,62.30
2018-12-05T16:19:43.686Z,62.10
2018-12-05T16:22:11.525Z,62.30
2018-12-05T16:24:40.003Z,62.20
2018-12-05T16:27:07.682Z,62.20
2018-12-05T16:29:35.508Z,62.30
2018-12-05T16:32:03.253Z,62.60
2018-12-05T16:34:31.051Z,62.30
2018-12-05T16:36:58.828Z,62.40
2018-12-05T16:39:26.863Z,62.60
2018-12-05T16:41:55.277Z,62.80
2018-12-05T16:44:23.731Z,63.20
2018-12-05T16:46:51.621Z,63.80
2018-12-05T16:49:19.246Z,63.40
2018-12-05T16:51:47.905Z,63.30
2018-12-05T16:54:15.721Z,64.20
2018-12-05T16:56:43.526Z,64.40
2018-12-05T16:59:12.663Z,64.80
2018-12-05T17:01:40.367Z,64.50
2018-12-05T17:04:08.153Z,64.20
2018-12-05T17:06:35.879Z,63.60
2018-12-05T17:09:06.365Z,63.90
2018-12-05T17:11:34.265Z,63.40
2018-12-05T17:14:02.112Z,63.50
2018-12-05T17:16:29.855Z,63.50
2018-12-05T17:18:58.121Z,63.40
2018-12-05T17:21:26.027Z,63.30
2018-12-05T17:23:53.836Z,63.30
2018-12-05T17:26:21.907Z,63.40
2018-12-05T17:28:49.754Z,63.20
2018-12-05T17:31:18.463Z,63.50
2018-12-05T17:33:47.570Z,63.40
2018-12-05T17:36:15.305Z,63.60
2018-12-05T17:38:42.972Z,63.60
2018-12-05T17:41:10.779Z,63.80
2018-12-05T17:43:38.491Z,64.20
2018-12-05T17:46:06.165Z,64.20
2018-12-05T17:48:33.984Z,64.40
2018-12-05T17:51:01.796Z,64.50
2018-12-05T17:53:29.510Z,64.50
2018-12-05T17:55:57.289Z,64.70
2018-12-05T17:58:26.458Z,64.50
2018-12-05T18:00:54.088Z,64.50
2018-12-05T18:03:21.830Z,64.30
2018-12-05T18:05:49.630Z,64.30
2018-12-05T18:08:17.702Z,64.50
2018-12-05T18:10:45.766Z,64.40
2018-12-05T18:13:16.953Z,64.70
2018-12-05T18:15:45.938Z,64.80
2018-12-05T18:18:13.748Z,65.10
2018-12-05T18:20:41.772Z,65.10
2018-12-05T18:23:09.569Z,64.90
2018-12-05T18:25:37.719Z,64.60
2018-12-05T18:28:05.484Z,64.40
2018-12-05T18:30:33.365Z,64.40
2018-12-05T18:33:01.162Z,64.90
2018-12-05T18:35:28.951Z,65.00
2018-12-05T18:37:56.775Z,64.60
2018-12-05T18:40:24.697Z,64.60
2018-12-05T18:42:52.564Z,64.60
2018-12-05T18:45:21.084Z,64.70
2018-12-05T18:47:48.996Z,64.90
2018-12-05T18:50:16.817Z,64.80
2018-12-05T18:52:44.893Z,65.00
2018-12-05T18:55:12.896Z,64.70
2018-12-05T18:57:40.762Z,65.00
2018-12-05T19:00:10.753Z,63.80
2018-12-05T19:02:38.775Z,64.30
2018-12-05T19:05:07.611Z,63.60
2018-12-05T19:07:35.450Z,64.10
2018-12-05T19:10:04.210Z,63.90
2018-12-05T19:12:33.057Z,63.80
2018-12-05T19:15:00.986Z,64.30
2018-12-05T19:17:29.035Z,64.30
2018-12-05T19:19:57.085Z,64.30
2018-12-05T19:22:26.314Z,64.90
2018-12-05T19:24:54.629Z,64.70
2018-12-05T19:27:22.494Z,64.60
2018-12-05T19:29:50.716Z,64.20
2018-12-05T19:32:18.792Z,63.90
2018-12-05T19:34:46.999Z,64.70
2018-12-05T19:37:15.060Z,64.50
2018-12-05T19:39:43.475Z,63.80
2018-12-05T19:42:11.298Z,64.40
2018-12-05T19:44:39.058Z,64.00
2018-12-05T19:47:06.851Z,64.60
2018-12-05T19:49:35.435Z,64.40
2018-12-05T19:52:03.456Z,64.50
2018-12-05T19:54:32.037Z,64.80
2018-12-05T19:57:00.442Z,65.00
2018-12-05T19:59:28.335Z,65.50
2018-12-05T20:01:57.000Z,64.90
2018-12-05T20:04:24.801Z,65.20
2018-12-05T20:06:52.650Z,65.00
2018-12-05T20:09:21.597Z,64.80
2018-12-05T20:11:49.733Z,65.10
2018-12-05T20:14:23.232Z,64.80
2018-12-05T20:16:51.268Z,64.80
2018-12-05T20:19:19.972Z,65.00
2018-12-05T20:21:48.055Z,64.90
2018-12-05T20:24:15.978Z,63.80
2018-12-05T20:26:43.870Z,63.80
2018-12-05T20:29:11.597Z,63.80
2018-12-05T20:31:39.969Z,63.80
2018-12-05T20:34:08.509Z,63.00
2018-12-05T20:36:36.360Z,63.30
2018-12-05T20:39:09.373Z,63.30
2018-12-05T20:41:37.521Z,63.10
2018-12-05T20:44:05.340Z,62.90
2018-12-05T20:46:33.146Z,62.50
2018-12-05T20:49:01.398Z,62.50
2018-12-05T20:51:31.253Z,62.60
2018-12-05T20:54:00.479Z,62.50
2018-12-05T20:56:28.411Z,62.70
2018-12-05T20:58:57.075Z,62.70
2018-12-05T21:01:26.190Z,62.60
2018-12-05T21:03:54.681Z,62.90
2018-12-05T21:06:22.867Z,62.80
2018-12-05T21:08:51.488Z,62.80
2018-12-05T21:11:20.652Z,63.00
2018-12-05T21:13:49.080Z,62.50
2018-12-05T21:16:17.378Z,62.60
2018-12-05T21:18:45.259Z,62.20
2018-12-05T21:21:13.202Z,62.30
2018-12-05T21:23:41.672Z,62.50
2018-12-05T21:26:54.297Z,62.50
2018-12-05T21:29:22.767Z,62.20
2018-12-05T21:31:50.742Z,62.20
2018-12-05T21:34:19.953Z,62.10
2018-12-05T21:36:47.866Z,62.30
2018-12-05T21:39:15.936Z,62.50
2018-12-05T21:41:43.744Z,63.00
2018-12-05T21:44:11.510Z,62.60
2018-12-05T21:46:39.308Z,62.50
2018-12-05T21:49:17.092Z,62.70
2018-12-05T21:51:44.816Z,63.80
2018-12-05T21:54:12.680Z,63.70
2018-12-05T21:56:40.847Z,63.40
2018-12-05T21:59:08.651Z,62.80
2018-12-05T22:01:36.732Z,63.00
2018-12-05T22:04:04.831Z,63.20
2018-12-05T22:06:32.632Z,63.00
2018-12-05T22:09:00.583Z,62.70
2018-12-05T22:11:29.390Z,62.50
2018-12-05T22:13:58.247Z,62.50
2018-12-05T22:16:26.433Z,62.80
2018-12-05T22:18:54.203Z,63.00
2018-12-05T22:21:22.033Z,63.20
2018-12-05T22:23:50.370Z,63.10
2018-12-05T22:26:18.322Z,63.40
2018-12-05T22:28:47.088Z,63.20
2018-12-05T22:31:14.887Z,63.30
2018-12-05T22:33:43.486Z,63.10
2018-12-05T22:36:12.907Z,63.30
2018-12-05T22:38:41.085Z,63.10
2018-12-05T22:41:09.879Z,63.30
2018-12-05T22:43:38.906Z,63.40
2018-12-05T22:46:06.898Z,63.10
2018-12-05T22:48:39.568Z,63.10
2018-12-05T22:51:07.663Z,63.20
2018-12-05T22:53:35.593Z,63.40
2018-12-05T22:56:04.195Z,63.40
2018-12-05T22:58:33.069Z,63.40
2018-12-05T23:01:01.677Z,63.80
2018-12-05T23:03:34.023Z,64.10
2018-12-05T23:06:02.650Z,63.80
2018-12-05T23:08:30.589Z,64.00
2018-12-05T23:10:59.659Z,63.90
2018-12-05T23:13:29.015Z,64.10
2018-12-05T23:15:57.164Z,64.40
2018-12-05T23:18:25.328Z,64.90
2018-12-05T23:20:53.487Z,64.60
2018-12-05T23:23:21.443Z,64.40
2018-12-05T23:25:49.409Z,64.60
2018-12-05T23:28:17.924Z,64.20
2018-12-05T23:30:46.077Z,64.60
2018-12-05T23:33:14.571Z,65.10
2018-12-05T23:35:42.440Z,65.30
2018-12-05T23:38:10.475Z,65.30
2018-12-05T23:40:38.509Z,65.10
2018-12-05T23:43:06.819Z,65.20
2018-12-05T23:45:36.534Z,66.00
2018-12-05T23:48:04.250Z,65.70
2018-12-05T23:50:33.602Z,65.90
2018-12-05T23:53:01.573Z,67.50
2018-12-05T23:55:30.551Z,68.80
2018-12-05T23:57:58.886Z,70.90
